createdAt,value
2023-01-13T00:04:10.785Z,4.50
2023-01-13T00:09:13.589Z,2.58
2023-01-13T00:14:16.402Z,4.90
2023-01-13T00:19:19.192Z,5.22
2023-01-13T00:24:22.376Z,3.87
2023-01-13T00:29:25.121Z,5.25
2023-01-13T00:34:27.923Z,2.95
2023-01-13T00:39:30.736Z,3.53
2023-01-13T00:44:33.549Z,3.33
2023-01-13T00:49:36.267Z,3.53
2023-01-13T00:54:39.276Z,3.28
2023-01-13T00:59:42.784Z,3.45
2023-01-13T01:04:45.565Z,2.27
2023-01-13T01:09:49.737Z,3.22
2023-01-13T01:14:52.548Z,3.10
2023-01-13T01:19:55.271Z,3.83
2023-01-13T01:24:58.538Z,3.00
2023-01-13T01:30:01.154Z,3.33
2023-01-13T01:35:05.169Z,3.20
2023-01-13T01:40:08.425Z,3.27
2023-01-13T01:45:27.105Z,5.35
2023-01-13T01:50:30.551Z,2.55
2023-01-13T01:55:37.265Z,2.70
2023-01-13T02:00:40.115Z,3.33
2023-01-13T02:05:42.950Z,3.00
2023-01-13T02:10:50.956Z,2.58
2023-01-13T02:16:17.763Z,3.67
2023-01-13T02:21:49.331Z,3.30
2023-01-13T02:27:20.045Z,3.28
2023-01-13T02:33:07.677Z,2.87
2023-01-13T02:38:13.947Z,2.78
2023-01-13T02:43:42.612Z,3.47
2023-01-13T02:48:48.158Z,6.80
2023-01-13T02:54:18.516Z,2.97
2023-01-13T02:59:26.423Z,2.73
2023-01-13T03:04:52.443Z,3.95
2023-01-13T03:10:05.530Z,2.05
2023-01-13T03:15:37.306Z,3.70
2023-01-13T03:20:50.129Z,2.63
2023-01-13T03:26:28.786Z,2.83
2023-01-13T03:31:38.286Z,2.63
2023-01-13T03:36:44.018Z,3.38
2023-01-13T03:41:54.852Z,2.37
2023-01-13T03:47:16.262Z,2.03
2023-01-13T03:52:35.625Z,2.50
2023-01-13T03:57:46.468Z,2.35
2023-01-13T04:02:59.184Z,6.05
2023-01-13T04:08:19.245Z,2.93
2023-01-13T04:13:24.873Z,3.58
2023-01-13T04:18:30.779Z,2.97
2023-01-13T04:23:33.669Z,2.72
2023-01-13T04:28:36.309Z,3.50
2023-01-13T04:33:39.336Z,6.93
2023-01-13T04:38:42.113Z,3.13
2023-01-13T04:43:45.096Z,2.83
2023-01-13T04:48:47.685Z,3.63
2023-01-13T04:53:52.457Z,3.45
2023-01-13T04:58:55.059Z,3.67
2023-01-13T05:03:57.791Z,2.40
2023-01-13T05:09:00.713Z,2.67
2023-01-13T05:14:21.905Z,2.67
2023-01-13T05:19:24.521Z,1.92
2023-01-13T05:24:45.688Z,2.47
2023-01-13T05:29:48.415Z,3.50
2023-01-13T05:34:51.516Z,3.40
2023-01-13T05:40:13.107Z,3.95
2023-01-13T05:45:16.252Z,3.67
2023-01-13T05:50:19.237Z,2.67
2023-01-13T05:55:21.992Z,3.53
2023-01-13T06:00:25.054Z,3.67
2023-01-13T06:05:28.318Z,2.65
2023-01-13T06:10:31.608Z,4.15
2023-01-13T06:15:34.387Z,5.00
2023-01-13T06:20:37.599Z,3.35
2023-01-13T06:26:01.767Z,4.77
2023-01-13T06:31:07.660Z,3.55
2023-01-13T06:36:15.824Z,5.28
2023-01-13T06:41:39.949Z,3.60
2023-01-13T06:46:43.034Z,3.10
2023-01-13T06:51:46.807Z,3.00
2023-01-13T06:56:49.737Z,3.03
2023-01-13T07:01:52.983Z,4.00
2023-01-13T07:06:56.236Z,3.13
2023-01-13T07:11:59.017Z,5.28
2023-01-13T07:17:01.750Z,4.10
2023-01-13T07:22:04.517Z,3.45
2023-01-13T07:27:07.420Z,3.70
2023-01-13T07:32:10.345Z,4.30
2023-01-13T07:37:13.177Z,5.13
2023-01-13T07:42:34.564Z,2.90
2023-01-13T07:47:39.229Z,3.22
2023-01-13T07:52:41.900Z,2.60
2023-01-13T07:57:44.785Z,2.63
2023-01-13T08:02:47.504Z,3.40
2023-01-13T08:07:50.300Z,3.57
2023-01-13T08:13:11.549Z,3.78
2023-01-13T08:18:15.394Z,4.13
2023-01-13T08:23:18.499Z,3.30
2023-01-13T08:28:24.443Z,4.93
2023-01-13T08:33:27.986Z,3.77
2023-01-13T08:38:30.958Z,4.18
2023-01-13T08:43:33.659Z,2.90
2023-01-13T08:48:36.549Z,3.00
2023-01-13T08:53:39.464Z,4.47
2023-01-13T08:58:42.215Z,4.27
2023-01-13T09:03:44.894Z,3.45
2023-01-13T09:08:48.067Z,2.53
2023-01-13T09:13:51.198Z,3.57
2023-01-13T09:18:54.156Z,4.00
2023-01-13T09:23:57.038Z,3.53
2023-01-13T09:28:59.758Z,3.97
2023-01-13T09:34:22.120Z,3.72
2023-01-13T09:39:25.116Z,6.00
2023-01-13T09:44:37.594Z,4.70
2023-01-13T09:49:43.260Z,3.63
2023-01-13T09:55:00.877Z,2.97
2023-01-13T10:00:12.615Z,3.35
2023-01-13T10:05:34.030Z,4.00
2023-01-13T10:10:46.552Z,4.53
2023-01-13T10:16:12.607Z,4.00
2023-01-13T10:21:53.913Z,4.10
2023-01-13T10:27:13.319Z,3.67
2023-01-13T10:32:16.004Z,3.10
2023-01-13T10:37:27.461Z,2.83
2023-01-13T10:42:30.236Z,5.00
2023-01-13T10:47:35.722Z,3.33
2023-01-13T10:52:43.229Z,4.32
2023-01-13T10:57:45.968Z,4.03
2023-01-13T11:03:16.276Z,4.15
2023-01-13T11:08:29.071Z,2.83
2023-01-13T11:14:04.017Z,4.38
2023-01-13T11:19:14.266Z,2.72
2023-01-13T11:24:37.106Z,3.53
2023-01-13T11:29:56.623Z,3.53
2023-01-13T11:35:14.679Z,3.93
2023-01-13T11:40:47.085Z,2.30
2023-01-13T11:45:54.071Z,3.88
2023-01-13T11:51:15.144Z,2.80
2023-01-13T11:56:55.302Z,3.00
2023-01-13T12:02:19.423Z,3.20
2023-01-13T12:07:28.207Z,3.75
2023-01-13T12:12:39.995Z,3.53
2023-01-13T12:17:55.237Z,2.63
2023-01-13T12:23:04.504Z,6.55
2023-01-13T12:28:25.490Z,3.40
2023-01-13T12:34:00.918Z,6.13
2023-01-13T12:39:28.836Z,5.60
2023-01-13T12:44:31.984Z,4.43
2023-01-13T12:49:36.908Z,3.70
2023-01-13T12:54:45.189Z,3.97
2023-01-13T12:59:59.889Z,4.93
2023-01-13T13:05:24.366Z,4.65
2023-01-13T13:10:43.192Z,5.20
2023-01-13T13:15:49.861Z,8.95
2023-01-13T13:21:04.750Z,5.03
2023-01-13T13:26:13.521Z,4.68
2023-01-13T13:31:41.886Z,4.22
2023-01-13T13:37:57.025Z,3.37
2023-01-13T13:43:18.987Z,4.00
2023-01-13T13:48:31.188Z,5.43
2023-01-13T13:53:36.756Z,5.93
2023-01-13T13:58:40.417Z,4.70
2023-01-13T14:03:43.228Z,3.00
2023-01-13T14:08:50.751Z,4.57
2023-01-13T14:14:03.176Z,6.63
2023-01-13T14:19:06.010Z,7.97
2023-01-13T14:24:16.649Z,5.88
2023-01-13T14:29:25.212Z,3.87
2023-01-13T14:34:32.686Z,5.28
2023-01-13T14:39:41.624Z,6.77
2023-01-13T14:44:48.987Z,3.35
2023-01-13T14:50:01.324Z,3.72
2023-01-13T14:55:10.440Z,6.80
2023-01-13T15:00:16.079Z,3.25
2023-01-13T15:05:24.786Z,5.07
2023-01-13T15:10:30.754Z,6.40
2023-01-13T15:15:34.682Z,5.30
2023-01-13T15:20:37.470Z,5.43
2023-01-13T15:25:43.818Z,6.57
2023-01-13T15:30:47.268Z,6.13
2023-01-13T15:35:52.881Z,5.30
2023-01-13T15:40:55.689Z,4.88
2023-01-13T15:46:16.929Z,3.90
2023-01-13T15:51:21.331Z,6.30
2023-01-13T15:56:26.996Z,5.53
2023-01-13T16:01:29.858Z,5.38
2023-01-13T16:06:33.296Z,5.13
2023-01-13T16:11:36.083Z,4.03
2023-01-13T16:16:39.096Z,5.47
2023-01-13T16:21:41.933Z,6.57
2023-01-13T16:26:45.085Z,7.88
2023-01-13T16:31:47.853Z,6.07
2023-01-13T16:36:50.674Z,9.60
2023-01-13T16:41:53.615Z,7.68
2023-01-13T16:46:56.320Z,5.93
2023-01-13T16:51:59.148Z,8.35
2023-01-13T16:57:01.901Z,8.52
2023-01-13T17:02:05.624Z,9.00
2023-01-13T17:07:08.863Z,7.70
2023-01-13T17:12:12.018Z,7.30
2023-01-13T17:17:32.722Z,10.10
2023-01-13T17:22:35.627Z,7.15
2023-01-13T17:27:38.580Z,7.27
2023-01-13T17:32:42.246Z,5.82
2023-01-13T17:37:45.423Z,7.70
2023-01-13T17:42:48.231Z,8.55
2023-01-13T17:47:51.533Z,7.65
2023-01-13T17:52:54.677Z,7.17
2023-01-13T17:57:57.496Z,8.10
2023-01-13T18:03:00.298Z,5.37
2023-01-13T18:08:03.280Z,10.23
2023-01-13T18:13:06.734Z,7.55
2023-01-13T18:18:09.418Z,8.00
2023-01-13T18:23:38.010Z,10.07
2023-01-13T18:28:41.388Z,10.60
2023-01-13T18:33:44.137Z,8.35
2023-01-13T18:38:46.876Z,7.07
2023-01-13T18:43:49.904Z,7.13
2023-01-13T18:48:52.725Z,6.65
2023-01-13T18:53:55.962Z,6.27
2023-01-13T18:58:59.377Z,9.05
2023-01-13T19:04:04.406Z,4.80
2023-01-13T19:09:11.331Z,6.97
2023-01-13T19:14:34.344Z,4.00
2023-01-13T19:19:44.656Z,4.80
2023-01-13T19:24:47.459Z,6.07
2023-01-13T19:29:52.450Z,7.57
2023-01-13T19:34:59.486Z,9.40
2023-01-13T19:40:04.951Z,9.65
2023-01-13T19:45:27.607Z,6.80
2023-01-13T19:50:30.411Z,6.47
2023-01-13T19:55:33.445Z,8.25
2023-01-13T20:00:36.541Z,3.23
2023-01-13T20:05:39.468Z,8.40
2023-01-13T20:10:44.554Z,5.00
2023-01-13T20:15:47.228Z,7.45
2023-01-13T20:20:50.138Z,6.45
2023-01-13T20:25:52.887Z,6.70
2023-01-13T20:30:56.192Z,6.35
2023-01-13T20:35:59.563Z,5.83
2023-01-13T20:41:22.935Z,6.88
2023-01-13T20:46:26.129Z,6.88
2023-01-13T20:51:29.163Z,6.33
2023-01-13T20:56:32.766Z,7.20
2023-01-13T21:01:36.252Z,8.33
2023-01-13T21:06:39.205Z,5.82
2023-01-13T21:12:00.876Z,7.97
2023-01-13T21:17:04.226Z,3.63
2023-01-13T21:22:07.103Z,7.47
2023-01-13T21:27:10.325Z,8.37
2023-01-13T21:32:13.416Z,6.97
2023-01-13T21:37:16.793Z,4.10
2023-01-13T21:42:37.788Z,7.63
2023-01-13T21:47:49.829Z,3.47
2023-01-13T21:52:53.226Z,3.40
2023-01-13T21:57:58.822Z,4.07
2023-01-13T22:03:06.896Z,3.67
2023-01-13T22:08:13.104Z,2.60
2023-01-13T22:13:34.449Z,4.70
2023-01-13T22:18:37.302Z,3.80
2023-01-13T22:23:40.140Z,3.80
2023-01-13T22:28:43.756Z,4.28
2023-01-13T22:33:49.555Z,4.87
2023-01-13T22:39:00.892Z,3.53
2023-01-13T22:44:03.573Z,3.47
2023-01-13T22:49:06.419Z,6.95
2023-01-13T22:54:10.359Z,3.22
2023-01-13T22:59:14.883Z,3.80
2023-01-13T23:04:17.750Z,5.97
2023-01-13T23:09:20.728Z,4.23
2023-01-13T23:14:23.734Z,4.70
2023-01-13T23:19:26.501Z,3.72
2023-01-13T23:24:29.575Z,4.10
2023-01-13T23:29:32.276Z,2.30
2023-01-13T23:34:34.966Z,5.00
2023-01-13T23:39:37.706Z,5.53
2023-01-13T23:44:40.545Z,4.07
2023-01-13T23:49:43.339Z,3.80
2023-01-13T23:54:46.120Z,5.45
2023-01-13T23:59:48.816Z,5.50
